Ten Mile, TN

2:47 AM EDT on July 01, 2015 (GMT -0400)
Englewood TN, Pool Park Area | | Change Station
CLOSE
Current Station
Personal Weather Station
Location: Englewood, TN
Elevation: 870 ft
Nearby Weather Stations

Elev 870 ft 35.43 °N, 84.49 °W | Updated 1 minute ago

Partly Cloudy
Partly Cloudy
67.7 °F
Feels Like 67.7 °F
N
0.0
Wind Variable Wind from NW
Gusts 0.0 mph

Today
High -- | Low -- °F
--% Chance of Precip.
Yesterday
High -- | Low -- °F
Precip. -- in
6:26 AM 8:58 PM
Waxing Gibbous, 99% visible
Pressure 30.03 in
Visibility 6.0 miles
Clouds Mostly Cloudy 800 ft
Mostly Cloudy 1300 ft
Dew Point 67 °F
Humidity 99%
Rainfall 0.00 in
Snow Depth Not available.
UV 0 out of 12
Pollen 2.80 out of 12
Air Quality Not available.
Flu Activity Not available.
SPECI KCSV 010626Z AUTO 24006KT 6SM BR BKN008 BKN013 22/19 A3003 RMK AO2 CIG 006V011 T02170194

More Conditions Fewer Conditions

Pressure 30.03 in
Visibility 6.0 miles
Clouds Mostly Cloudy 800 ft
Mostly Cloudy 1300 ft
Dew Point 67 °F
Humidity 99%
Rainfall 0.00 in
Snow Depth Not available.
UV 0 out of 12
Pollen 2.80 out of 12
Air Quality Not available.
Flu Activity Not available.
SPECI KCSV 010626Z AUTO 24006KT 6SM BR BKN008 BKN013 22/19 A3003 RMK AO2 CIG 006V011 T02170194

More Conditions Fewer Conditions

10-Day Weather Forecast

×

Almanac

Astronomy

Jul. 01, 2015 Rise Set
Actual Time
Civil Twilight
Nautical Twilight
Astronomical Twilight
Moon
Length of Visible Light
Length of Day
Tomorrow will be .
, % of the Moon is Illuminated

Today's Extremes

State Highs State Lows

Community

WunderPhotos

Upload Photos

1,834,162 photos uploaded!

WunderBlogs® & News

Nearby

Air Quality

  Air Quality AQ Index Pollutant
Not available.

Snow Depth

Station Depth Elevation

Earthquake Activity

City Distance Mag. Time & Date
Minimum magnitude displayed is 2.5.

Coastal Water Temperatures

Place Temperature

Stations

Nearby Weather Stations

Station Location Temp. Windchill Dew Point Humidity Wind Precip. Elev Updated Type